Potomac, Montana
Current Conditions -  °F | °C
As of 3:53 AM on Thursday 27 Nov 2014 (Local Time) from KMSO Reporting Station
Moderate Fog Moderate Fog  
Wind Chill: -1°   Ceiling: 300
Heat Index: -1°   Visibility: 0.25mi
Dew Point: -1°   Wind: 0mph
Humidity: 100%   Direction: NA
Pressure: 30.02"   Gusts: NA
Location:  46.8727°N, 113.587°W
Report Text: KMSO 271053Z AUTO 00000KT 1/4SM FZFG VV003 M01/M01 A3002 RMK AO2 SLP193 T10061006
Loading
Personal Weather Stations






























Interactive Weather Map New forecast layout! Learn more

10-Day Weather Forecast

Advertisements
Track Severe Weather on mobile